Terminal Aerodrome Forecast
Issued by NWS

Home | Current Version | Previous Version | Text Only | Print | Product List | Glossary On
Versions: 1 2 3 4 5 6 7 8 9 10 11 12 13 14 15
263
FTUS46 KSEW 290523
TAFBFI
TAF
KBFI 290523Z 2906/3006 34007KT P6SM OVC070
     FM290700 18005KT P6SM SCT040 OVC070
     FM291000 16005KT P6SM BKN018 OVC030
     FM291400 18005KT P6SM -SHRA SCT012 OVC018
     FM292000 25005KT P6SM VCSH SCT020 BKN030
     FM300000 27006KT P6SM SCT035 BKN050
     FM300300 VRB03KT P6SM BKN050=

USA.gov is the U.S. government's official web portal to all federal, state and local government web resources and services.